Etusivu
METAR-TAF:

METAR-TAF

Lentoasemat :

Lontoo Biggin Hill, Englanti

Leveyspiiri: 51-19N, Pituuspiiri: 000-02E, korkeus merenpinnasta: 183 m

Tämänhetkinen sää

Tämä raportti tehtiin 9 tuntia ja 41 minuuttia sitten, kello 20.20 UTC
Tuuli 5 kn lounaasta
Lämpötila 12°C
Kosteus 82%
Ilmanpaine 1031 hPa
Näkyvyys 10 km tai enemmän
ei pilviä alle 1500 m:ssä eikä cumulonimbus-pilviä

METAR: EGKB 202020Z 23005KT CAVOK 12/09 Q1031

Aika: 07:01 (06:01 UTC)

Sääennuste

Tämä raportti tehtiin 13 tuntia ja 6 minuuttia sitten, kello 16.55 UTC
Ennuste voimassa 20. päivästä klo 18 UTC - 20. päivään klo 21 UTC
Tuuli 3 kn lännestä/lounaasta
Näkyvyys 10 km tai enemmän
ei pilviä alle 1500 m:ssä eikä cumulonimbus-pilviä
Todennäköisyys 30%
20. päivästä klo 18 UTC - 20. päivään klo 21 UTC
Näkyvyys: 8000 m

TAF: EGKB 201655Z 2018/2021 24003KT CAVOK PROB30 2018/2021 8000

Säähavainnot ja -ennusteet yli 4000 lentoasemalta (METAR- ja TAF-raportit).

Käytössä olevat sääasemat on merkitty karttaan keltaisilla ja punaisilla pisteillä.

Aseta hiiri pisteen päälle nähdäksesi sääaseman nimen.

Klikkaa sitten nähdäksesi säähavainnot ja -ennusteet.

Kartan vaihtaminen: klikkaa mustalla rastilla varustettuja vihreitä pisteitä, niin voit zoomata sisään; viivalla varustettua vihreää pistettä, niin voit zoomata ulos tai vihreitä nuolia, niin pääset viereisille kartoille.


METAR-TAF: